Flight Track Log - Related Links

Times and Time Zones

All times are in EDT time to prevent confusion due to time zone crossing. See the N87CA flight status page for this flight to view local times or setup timezone preferences in your user account.

Time Position Orientation Groundspeed Altitude Reporting Facility
EDT Latitude Longitude Course Direction KTS MPH feet Rate Location/Type
Tue 10:03:13 AM 33.3833 -84.5000 184° South 205 236 5,900  Level Atlanta TRACON
Tue 10:04:13 AM 33.3333 -84.5000 180° South 205 236 5,900  Level Atlanta TRACON
Tue 10:05:19 AM 33.2667 -84.5000 180° South 204 235 5,900 48 Level Atlanta TRACON
Tue 10:06:19 AM 33.2000 -84.5167 192° South 200 230 6,000 300 Climbing Atlanta TRACON
Tue 10:07:19 AM 33.1500 -84.5167 180° South 190 219 6,500 550 Climbing Atlanta TRACON
Tue 10:08:00 AM 33.1425 -84.4676 184° South  Level Estimated
Tue 10:08:19 AM 33.1000 -84.5167 180° South 187 215 7,100  Level Atlanta TRACON
Tue 10:09:25 AM 33.0500 -84.5167 180° South 185 213 7,900 429 Climbing Atlanta TRACON
Tue 10:10:25 AM 33.0000 -84.5167 180° South 198 228 8,000  Climbing Atlanta TRACON
Tue 10:11:25 AM 32.9333 -84.5333 192° South 200 230 7,900 -48 Descending Atlanta TRACON
Tue 10:12:31 AM 32.8833 -84.5333 180° South 202 232 7,900  Level Atlanta TRACON
Tue 10:13:25 AM 32.8167 -84.5333 180° South 202 232 7,900 50 Level Atlanta TRACON
Tue 10:14:31 AM 32.7667 -84.5333 180° South 201 231 8,000 48 Climbing Atlanta TRACON
Tue 10:15:31 AM 32.7000 -84.5333 180° South 199 229 8,000 -50 Level Atlanta TRACON
Tue 10:16:31 AM 32.6500 -84.5500 196° South 197 227 7,900 -48 Descending Atlanta TRACON
Tue 10:17:37 AM 32.5833 -84.5500 180° South 201 231 7,900 43 Level Atlanta TRACON
Tue 10:18:49 AM 32.5333 -84.5500 180° South 203 234 8,000  Climbing Atlanta TRACON
Tue 10:19:55 AM 32.4667 -84.5500 180° South 202 232 7,900 -48 Descending Atlanta TRACON
Tue 10:20:55 AM 32.4167 -84.5500 180° South 204 235 7,900  Level Atlanta TRACON
Tue 10:21:49 AM 32.3500 -84.5667 192° South 204 235 7,900  Level Atlanta TRACON
Tue 10:22:55 AM 32.3000 -84.5667 180° South 202 232 7,900  Level Atlanta TRACON
Tue 10:23:55 AM 32.2333 -84.5667 180° South 200 230 7,900 58 Level Atlanta TRACON
Tue 10:24:38 AM 32.1972 -84.5669 180° South 211 243 8,000  Climbing Jacksonville Center
Tue 10:25:38 AM 32.1472 -84.5683 181° South 211 243 7,900 -50 Descending Jacksonville Center
Tue 10:26:39 AM 32.0886 -84.5747 185° South 211 243 7,900  Level Jacksonville Center
Tue 10:27:38 AM 32.0300 -84.5786 183° South 211 243 7,900  Level Jacksonville Center
Tue 10:28:38 AM 31.9758 -84.5800 181° South 211 243 7,900  Level Jacksonville Center
Tue 10:29:39 AM 31.9194 -84.5814 181° South 211 243 7,900 50 Level Jacksonville Center
Tue 10:30:38 AM 31.8608 -84.5853 183° South 211 243 8,000 50 Climbing Jacksonville Center
Tue 10:31:38 AM 31.8022 -84.5892 183° South 216 249 8,000 -50 Level Jacksonville Center
Tue 10:32:39 AM 31.7481 -84.5931 183° South 216 249 7,900 -150 Descending Jacksonville Center
Tue 10:33:38 AM 31.6894 -84.5944 181° South 216 249 7,700 -403 Descending Jacksonville Center
Tue 10:34:38 AM 31.6289 -84.5981 183° South 216 249 7,100 -650 Descending Jacksonville Center
Tue 10:35:38 AM 31.5661 -84.6042 185° South 216 249 6,400 -650 Descending Jacksonville Center
Tue 10:36:38 AM 31.5078 -84.6081 183° South 216 249 5,800 -500 Descending Jacksonville Center
Tue 10:37:38 AM 31.4533 -84.6094 181° South 211 243 5,400 -500 Descending Jacksonville Center
Tue 10:38:38 AM 31.4011 -84.6133 184° South 205 236 4,800 -550 Descending Jacksonville Center
Tue 10:39:38 AM 31.3489 -84.6150 182° South 198 228 4,300 -500 Descending Jacksonville Center
Tue 10:40:38 AM 31.2967 -84.6164 181° South 193 222 3,800 -550 Descending Jacksonville Center
Tue 10:41:38 AM 31.2467 -84.6203 184° South 193 222 3,200 -400 Descending Jacksonville Center
Tue 10:42:38 AM 31.1964 -84.6242 184° South 193 222 3,000 -100 Descending Jacksonville Center
Tue 10:43:38 AM 31.1547 -84.6258 182° South 181 208 3,000  Level Jacksonville Center
Tue 10:44:38 AM 31.1108 -84.6275 182° South 168 193 3,000 -250 Level Jacksonville Center
Tue 10:45:38 AM 31.0736 -84.6025 150° Southeast 155 178 2,500 -500 Descending Jacksonville Center

Login

Don't have an account? Register now (free) for customized features, flight alerts, and more!